Time;durP1;ratioP1;P1;durP2;ratioP2;P2;SDS_P1;SDS_P2;PMS_P1;PMS_P2;Temp;Humidity;BMP_temperature;BMP_pressure;BME280_temperature;BME280_humidity;BME280_pressure;Samples;Min_cycle;Max_cycle;Signal;HPM_P1;HPM_P2
2021/08/16 00:03:56;;;;;;;13.03;2.97;;;;;15.70;100676.00;;;;9870012;29;20212;-78
2021/08/16 00:08:58;;;;;;;14.17;2.70;;;;;15.70;100673.00;;;;9915219;29;20229;-77
2021/08/16 00:14:00;;;;;;;12.57;3.33;;;;;15.70;100671.00;;;;9884600;29;20281;-78
2021/08/16 00:19:02;;;;;;;10.57;2.50;;;;;15.60;100673.00;;;;9884539;29;20207;-78
2021/08/16 00:24:04;;;;;;;9.23;2.47;;;;;15.60;100667.00;;;;9872810;29;20232;-78
2021/08/16 00:29:06;;;;;;;10.23;2.20;;;;;15.70;100661.00;;;;9861646;30;20239;-78
2021/08/16 00:34:08;;;;;;;7.60;2.40;;;;;15.80;100665.00;;;;9876208;30;20216;-78
2021/08/16 00:39:10;;;;;;;6.70;2.50;;;;;15.90;100660.00;;;;9868929;29;20237;-78
2021/08/16 00:44:13;;;;;;;13.90;3.20;;;;;16.00;100657.00;;;;9846747;29;20207;-78
2021/08/16 00:49:14;;;;;;;12.57;2.80;;;;;16.00;100658.00;;;;9882793;29;20241;-78
2021/08/16 00:54:16;;;;;;;9.63;2.93;;;;;16.10;100658.00;;;;9867811;29;20207;-78
2021/08/16 00:59:19;;;;;;;15.03;3.00;;;;;16.10;100662.00;;;;9881808;29;20249;-78
2021/08/16 01:04:22;;;;;;;10.17;2.43;;;;;16.20;100655.00;;;;9880760;29;20737;-78
2021/08/16 01:09:24;;;;;;;7.13;2.77;;;;;16.20;100655.00;;;;9886102;29;20694;-78
2021/08/16 01:14:26;;;;;;;10.47;2.63;;;;;16.20;100652.00;;;;9880551;29;20207;-78
2021/08/16 01:19:28;;;;;;;7.97;2.60;;;;;16.20;100659.00;;;;9880079;29;20214;-79
2021/08/16 01:24:30;;;;;;;14.67;3.27;;;;;16.20;100662.00;;;;9880250;29;20273;-78
2021/08/16 01:29:34;;;;;;;4.53;2.13;;;;;16.30;100663.00;;;;9909710;29;20256;-78
2021/08/16 01:34:36;;;;;;;9.43;2.77;;;;;16.30;100667.00;;;;9895574;29;20211;-78
2021/08/16 01:39:38;;;;;;;9.80;2.57;;;;;16.30;100664.00;;;;9894686;29;20224;-77
2021/08/16 01:44:40;;;;;;;10.63;2.97;;;;;16.30;100665.00;;;;9894035;29;20216;-78
2021/08/16 01:49:42;;;;;;;10.70;2.50;;;;;16.30;100664.00;;;;9908616;29;20235;-78
2021/08/16 01:54:44;;;;;;;14.63;2.50;;;;;16.30;100659.00;;;;9893941;29;20790;-78
2021/08/16 01:59:45;;;;;;;9.50;2.33;;;;;16.30;100663.00;;;;9878582;29;20211;-78
2021/08/16 02:04:50;;;;;;;9.53;2.30;;;;;16.30;100665.00;;;;9908849;29;20208;-78
2021/08/16 02:09:51;;;;;;;8.93;2.80;;;;;16.30;100661.00;;;;9878460;29;20231;-78
2021/08/16 02:14:53;;;;;;;9.67;2.60;;;;;16.30;100647.00;;;;9879002;29;20253;-78
2021/08/16 02:19:55;;;;;;;9.30;2.30;;;;;16.30;100651.00;;;;9878786;29;20207;-78
2021/08/16 02:24:57;;;;;;;8.47;2.60;;;;;16.20;100642.00;;;;9878168;29;20332;-78
2021/08/16 02:29:59;;;;;;;8.33;1.70;;;;;16.20;100645.00;;;;9882822;29;20227;-78
2021/08/16 02:35:01;;;;;;;10.47;2.27;;;;;16.20;100651.00;;;;9827308;30;20208;-78
2021/08/16 02:40:04;;;;;;;9.00;2.37;;;;;16.20;100655.00;;;;9892331;29;20212;-78
2021/08/16 02:45:07;;;;;;;10.43;3.50;;;;;16.20;100639.00;;;;9893295;29;20200;-78
2021/08/16 02:50:09;;;;;;;8.73;2.17;;;;;16.20;100640.00;;;;9878628;29;20280;-78
2021/08/16 02:55:12;;;;;;;10.60;2.87;;;;;16.10;100631.00;;;;9888751;29;20238;-77
2021/08/16 03:00:15;;;;;;;9.93;3.07;;;;;16.10;100626.00;;;;9872086;29;20212;-78
2021/08/16 03:05:16;;;;;;;8.03;2.23;;;;;16.00;100634.00;;;;9865272;29;20204;-78
2021/08/16 03:10:19;;;;;;;9.00;2.70;;;;;16.00;100624.00;;;;9900260;29;20229;-79
2021/08/16 03:15:21;;;;;;;9.97;2.47;;;;;16.00;100617.00;;;;9885657;29;20207;-78
2021/08/16 03:20:23;;;;;;;7.60;2.10;;;;;16.10;100628.00;;;;9871056;29;20242;-79
2021/08/16 03:25:25;;;;;;;10.47;3.00;;;;;16.10;100629.00;;;;9885041;29;20210;-79
2021/08/16 03:30:27;;;;;;;9.93;2.90;;;;;16.10;100619.00;;;;9884730;29;20226;-79
2021/08/16 03:35:29;;;;;;;8.37;2.30;;;;;16.20;100623.00;;;;9897465;29;20223;-78
2021/08/16 03:40:31;;;;;;;11.63;2.30;;;;;16.20;100620.00;;;;9883594;29;20223;-78
2021/08/16 03:45:33;;;;;;;12.33;2.50;;;;;16.20;100606.00;;;;9869484;29;20208;-79
2021/08/16 03:50:35;;;;;;;12.40;2.93;;;;;16.20;100609.00;;;;9898108;29;20250;-78
2021/08/16 03:55:38;;;;;;;14.17;2.50;;;;;16.10;100614.00;;;;9881601;29;20500;-78
2021/08/16 04:00:40;;;;;;;10.77;2.40;;;;;16.10;100616.00;;;;9897761;29;20218;-78
2021/08/16 04:05:43;;;;;;;11.23;2.60;;;;;16.10;100612.00;;;;9896760;29;20200;-78
2021/08/16 04:10:46;;;;;;;10.00;2.77;;;;;16.20;100623.00;;;;9897484;29;20235;-78
2021/08/16 04:15:48;;;;;;;8.87;3.03;;;;;16.20;100607.00;;;;9911381;29;20211;-78
2021/08/16 04:20:49;;;;;;;11.93;2.80;;;;;16.10;100617.00;;;;9896893;29;20295;-77
2021/08/16 04:25:51;;;;;;;9.73;2.27;;;;;16.00;100623.00;;;;9867349;29;20219;-79
2021/08/16 04:30:53;;;;;;;12.37;2.80;;;;;15.90;100626.00;;;;9882362;29;20684;-78
2021/08/16 04:35:55;;;;;;;11.63;4.00;;;;;15.90;100626.00;;;;9867218;29;20260;-79
2021/08/16 04:40:57;;;;;;;9.23;2.73;;;;;16.00;100641.00;;;;9881276;29;20203;-78
2021/08/16 04:45:59;;;;;;;8.87;2.70;;;;;16.20;100644.00;;;;9896236;29;20208;-78
2021/08/16 04:51:02;;;;;;;9.30;3.40;;;;;16.30;100626.00;;;;9897117;29;20223;-78
2021/08/16 04:56:04;;;;;;;13.33;3.63;;;;;16.30;100634.00;;;;9896489;29;20242;-79
2021/08/16 05:01:06;;;;;;;12.00;4.13;;;;;16.40;100631.00;;;;9881142;29;20272;-78
2021/08/16 05:06:08;;;;;;;10.87;4.13;;;;;16.50;100632.00;;;;9911799;29;20203;-77
2021/08/16 05:11:10;;;;;;;11.60;3.97;;;;;16.60;100628.00;;;;9881509;29;20235;-78
2021/08/16 05:16:12;;;;;;;10.83;3.50;;;;;16.60;100619.00;;;;9911378;29;20206;-79
2021/08/16 05:21:14;;;;;;;9.70;3.30;;;;;16.70;100627.00;;;;9895874;29;20203;-78
2021/08/16 05:26:16;;;;;;;13.17;4.17;;;;;16.80;100635.00;;;;9906387;29;20218;-78
2021/08/16 05:31:18;;;;;;;10.53;3.00;;;;;16.80;100639.00;;;;9895446;29;20288;-79
2021/08/16 05:36:20;;;;;;;9.23;3.60;;;;;16.90;100635.00;;;;9895163;29;20322;-79
2021/08/16 05:41:22;;;;;;;9.03;3.03;;;;;17.00;100640.00;;;;9894889;29;20256;-78
2021/08/16 05:46:24;;;;;;;13.67;3.63;;;;;17.10;100639.00;;;;9880248;29;20572;-79
2021/08/16 05:51:26;;;;;;;9.50;3.20;;;;;17.20;100637.00;;;;9894709;29;20326;-79
2021/08/16 05:56:27;;;;;;;8.47;3.10;;;;;17.30;100641.00;;;;9894038;29;20664;-79
2021/08/16 06:01:35;;;;;;;10.03;3.40;;;;;17.40;100641.00;;;;9893762;29;20295;-79
2021/08/16 06:06:37;;;;;;;11.87;4.00;;;;;17.70;100647.00;;;;9895415;29;20226;-79
2021/08/16 06:11:39;;;;;;;11.67;3.93;;;;;17.90;100652.00;;;;9894170;29;20239;-78
2021/08/16 06:16:41;;;;;;;9.87;4.07;;;;;18.00;100652.00;;;;9879878;29;20216;-78
2021/08/16 06:21:43;;;;;;;9.10;3.33;;;;;18.10;100654.00;;;;9893692;29;20204;-78
2021/08/16 06:26:45;;;;;;;10.15;3.17;;;;;18.20;100658.00;;;;9891520;29;20218;-78
2021/08/16 06:31:47;;;;;;;11.73;3.58;;;;;18.40;100655.00;;;;9930971;29;20227;-78
2021/08/16 06:36:55;;;;;;;9.10;3.28;;;;;18.50;100653.00;;;;9930951;29;20230;-78
2021/08/16 06:41:58;;;;;;;6.60;3.67;;;;;18.70;100639.00;;;;9913101;29;20272;-78
2021/08/16 06:46:59;;;;;;;7.88;3.45;;;;;19.00;100648.00;;;;9885954;29;20207;-78
2021/08/16 06:52:02;;;;;;;9.82;3.70;;;;;19.30;100653.00;;;;9870193;29;20240;-78
2021/08/16 06:57:04;;;;;;;7.85;3.33;;;;;19.30;100643.00;;;;9885599;29;20886;-79
2021/08/16 07:02:07;;;;;;;10.73;3.70;;;;;19.20;100640.00;;;;9885414;29;20232;-78
2021/08/16 07:07:09;;;;;;;6.60;3.40;;;;;19.20;100656.00;;;;9900246;29;20276;-78
2021/08/16 07:12:11;;;;;;;10.77;4.18;;;;;19.70;100654.00;;;;9914731;29;20276;-78
2021/08/16 07:17:13;;;;;;;10.82;3.67;;;;;19.70;100657.00;;;;9900021;29;20210;-78
2021/08/16 07:22:16;;;;;;;13.43;4.65;;;;;19.50;100660.00;;;;9886229;29;20214;-78
2021/08/16 07:27:18;;;;;;;8.90;4.32;;;;;19.80;100660.00;;;;9921096;29;20303;-78
2021/08/16 07:32:20;;;;;;;10.05;4.65;;;;;20.10;100670.00;;;;9932100;29;20268;-77
2021/08/16 07:37:22;;;;;;;9.50;4.30;;;;;20.00;100664.00;;;;9899182;29;20232;-78
2021/08/16 07:42:25;;;;;;;10.98;4.30;;;;;20.10;100652.00;;;;9898908;29;20215;-78
2021/08/16 07:47:27;;;;;;;10.40;3.90;;;;;20.50;100659.00;;;;9883239;29;20219;-78
2021/08/16 07:52:34;;;;;;;6.45;3.38;;;;;20.20;100667.00;;;;9890204;29;20227;-77
2021/08/16 07:57:36;;;;;;;7.63;3.45;;;;;19.40;100664.00;;;;9861687;30;20220;-79
2021/08/16 08:02:42;;;;;;;11.05;3.50;;;;;18.90;100666.00;;;;9846374;30;20596;-77
2021/08/16 08:07:45;;;;;;;9.85;3.95;;;;;18.70;100666.00;;;;9887798;29;20271;-77
2021/08/16 08:12:49;;;;;;;10.68;4.30;;;;;18.60;100675.00;;;;9907798;29;20223;-78
2021/08/16 08:17:51;;;;;;;10.80;3.40;;;;;18.60;100680.00;;;;9874644;29;20204;-78
2021/08/16 08:22:54;;;;;;;8.65;4.00;;;;;18.50;100689.00;;;;9886001;29;20258;-78
2021/08/16 08:27:56;;;;;;;6.38;3.17;;;;;18.50;100693.00;;;;9864150;29;20265;-78
2021/08/16 08:32:57;;;;;;;7.00;3.65;;;;;18.60;100693.00;;;;9868129;29;20235;-79
2021/08/16 08:37:59;;;;;;;10.70;3.53;;;;;18.70;100707.00;;;;9887323;29;20292;-79
2021/08/16 08:43:01;;;;;;;3.65;2.78;;;;;18.00;100705.00;;;;9881819;29;20271;-81
2021/08/16 08:48:03;;;;;;;3.97;3.50;;;;;17.20;100716.00;;;;9888626;29;20217;-79
2021/08/16 08:53:06;;;;;;;4.60;3.53;;;;;17.10;100710.00;;;;9878343;29;20215;-81
2021/08/16 08:58:08;;;;;;;5.13;3.60;;;;;17.60;100724.00;;;;9882938;29;20215;-80
2021/08/16 09:03:14;;;;;;;9.37;4.50;;;;;17.90;100729.00;;;;9881053;29;20541;-80
2021/08/16 09:08:22;;;;;;;6.28;3.30;;;;;18.10;100737.00;;;;9895756;29;20207;-80
2021/08/16 09:13:25;;;;;;;6.90;3.90;;;;;18.20;100749.00;;;;9911037;29;20275;-80
2021/08/16 09:18:30;;;;;;;7.00;3.35;;;;;18.40;100757.00;;;;9896086;29;20272;-80
2021/08/16 09:23:45;;;;;;;7.20;3.45;;;;;18.40;100771.00;;;;9880959;29;20226;-79
2021/08/16 09:28:47;;;;;;;6.75;3.60;;;;;19.20;100759.00;;;;9880562;29;20297;-79
2021/08/16 09:34:00;;;;;;;5.80;3.10;;;;;20.20;100765.00;;;;9879719;29;20262;-80
2021/08/16 09:39:15;;;;;;;4.95;2.63;;;;;20.20;100770.00;;;;9878774;29;20314;-80
2021/08/16 09:44:17;;;;;;;5.65;3.40;;;;;20.30;100778.00;;;;9881041;29;20611;-78
2021/08/16 09:49:21;;;;;;;8.10;3.65;;;;;20.60;100797.00;;;;9884760;29;20690;-80
2021/08/16 09:54:23;;;;;;;8.45;4.25;;;;;20.60;100784.00;;;;9877949;29;20274;-80
2021/08/16 09:59:26;;;;;;;8.80;4.50;;;;;21.00;100800.00;;;;9881358;29;20874;-80
2021/08/16 10:04:30;;;;;;;11.30;5.80;;;;;20.80;100813.00;;;;9877679;29;20273;-79
2021/08/16 10:09:35;;;;;;;9.63;5.82;;;;;20.70;100818.00;;;;9887492;29;20265;-78
2021/08/16 10:14:37;;;;;;;12.50;6.90;;;;;20.10;100820.00;;;;9897162;29;20212;-81
2021/08/16 10:19:54;;;;;;;14.65;7.28;;;;;21.10;100818.00;;;;9899956;29;20575;-79
2021/08/16 10:25:07;;;;;;;11.35;7.50;;;;;21.70;100806.00;;;;9889361;29;20215;-79
2021/08/16 10:30:12;;;;;;;13.70;8.27;;;;;22.60;100820.00;;;;9887598;29;20245;-80
2021/08/16 10:35:19;;;;;;;16.80;10.82;;;;;22.10;100845.00;;;;9913574;29;20576;-80
2021/08/16 10:40:24;;;;;;;19.80;11.98;;;;;20.80;100838.00;;;;9901797;29;20230;-79
2021/08/16 10:45:35;;;;;;;13.65;10.10;;;;;21.70;100843.00;;;;9886362;29;20200;-79
2021/08/16 10:50:37;;;;;;;18.02;12.50;;;;;22.30;100834.00;;;;9901245;29;20223;-79
2021/08/16 10:55:41;;;;;;;16.85;11.43;;;;;22.80;100832.00;;;;9879260;29;20665;-79
2021/08/16 11:00:42;;;;;;;22.60;14.20;;;;;21.90;100849.00;;;;9885820;29;20660;-80
2021/08/16 11:05:44;;;;;;;19.50;13.48;;;;;20.70;100860.00;;;;9864889;30;20220;-80
2021/08/16 11:10:49;;;;;;;21.30;15.85;;;;;20.30;100851.00;;;;9900299;29;20687;-79
2021/08/16 11:15:51;;;;;;;22.13;16.73;;;;;21.40;100858.00;;;;9885429;29;20670;-83
2021/08/16 11:21:02;;;;;;;20.77;14.38;;;;;22.80;100861.00;;;;9898082;29;20235;-81
2021/08/16 11:26:04;;;;;;;22.38;14.77;;;;;23.30;100883.00;;;;9846433;30;20224;-80
2021/08/16 11:31:08;;;;;;;21.67;16.40;;;;;22.30;100884.00;;;;9903855;29;20227;-80
2021/08/16 11:36:12;;;;;;;21.92;15.70;;;;;21.10;100891.00;;;;9870167;29;20231;-80
2021/08/16 11:41:15;;;;;;;22.08;15.10;;;;;20.80;100896.00;;;;9878934;29;20204;-80
2021/08/16 11:46:34;;;;;;;20.45;14.95;;;;;20.70;100902.00;;;;9897025;29;20211;-78
2021/08/16 11:51:40;;;;;;;18.35;12.48;;;;;20.60;100901.00;;;;9889194;29;20220;-79
2021/08/16 11:56:53;;;;;;;25.30;16.55;;;;;20.50;100914.00;;;;9865150;30;20219;-80
2021/08/16 12:02:04;;;;;;;25.20;18.10;;;;;20.90;100926.00;;;;9888611;29;20308;-79
2021/08/16 12:07:07;;;;;;;26.92;16.27;;;;;21.40;100921.00;;;;9916912;29;20207;-79
2021/08/16 12:12:11;;;;;;;24.33;16.20;;;;;21.50;100914.00;;;;9921715;29;20250;-79
2021/08/16 12:17:23;;;;;;;22.45;15.23;;;;;21.20;100928.00;;;;9905367;29;20314;-78
2021/08/16 12:22:28;;;;;;;21.80;13.23;;;;;21.50;100929.00;;;;9868242;29;20210;-79
2021/08/16 12:27:30;;;;;;;21.13;15.07;;;;;22.10;100934.00;;;;9913992;29;20203;-79
2021/08/16 12:32:32;;;;;;;19.40;15.65;;;;;22.80;100949.00;;;;9912509;29;20227;-79
2021/08/16 12:37:34;;;;;;;26.67;15.95;;;;;23.20;100951.00;;;;9896619;29;20733;-80
2021/08/16 12:42:37;;;;;;;19.77;14.77;;;;;22.60;100955.00;;;;9892101;29;20207;-80
2021/08/16 12:47:39;;;;;;;24.25;15.90;;;;;20.90;100970.00;;;;9893085;29;20247;-79
2021/08/16 12:52:41;;;;;;;19.50;14.02;;;;;19.70;100976.00;;;;9912515;29;20431;-80
2021/08/16 12:57:42;;;;;;;20.95;15.20;;;;;19.20;100975.00;;;;9896434;29;20273;-78
2021/08/16 13:02:47;;;;;;;23.88;15.02;;;;;18.80;100981.00;;;;9881696;29;20635;-78
2021/08/16 13:07:49;;;;;;;29.95;12.85;;;;;18.70;100986.00;;;;9876568;29;20212;-79
2021/08/16 13:12:52;;;;;;;24.98;14.45;;;;;18.90;101005.00;;;;9897278;29;20231;-79
2021/08/16 13:17:54;;;;;;;22.88;13.05;;;;;19.90;100974.00;;;;9852301;30;20204;-79
2021/08/16 13:22:57;;;;;;;19.50;12.68;;;;;21.00;101003.00;;;;9904258;29;20285;-77
2021/08/16 13:27:59;;;;;;;17.85;11.13;;;;;21.70;101000.00;;;;9902195;29;20214;-79
2021/08/16 13:33:02;;;;;;;19.73;13.07;;;;;21.70;101014.00;;;;9875407;29;20232;-79
2021/08/16 13:38:04;;;;;;;21.98;13.38;;;;;21.90;101021.00;;;;9872845;29;20239;-79
2021/08/16 13:43:06;;;;;;;18.85;12.45;;;;;21.00;101021.00;;;;9890598;29;20219;-80
2021/08/16 13:48:08;;;;;;;20.73;13.15;;;;;19.60;101025.00;;;;9902286;29;20207;-80
2021/08/16 13:53:10;;;;;;;18.98;13.63;;;;;19.00;101007.00;;;;9867990;29;20235;-79
2021/08/16 13:58:13;;;;;;;18.40;10.02;;;;;18.50;101043.00;;;;9892167;29;20208;-78
2021/08/16 14:03:14;;;;;;;8.05;5.22;;;;;17.60;101059.00;;;;9891710;29;20628;-79
2021/08/16 14:08:19;;;;;;;7.55;4.85;;;;;16.50;101075.00;;;;9894377;29;20867;-79
2021/08/16 14:13:21;;;;;;;8.30;4.93;;;;;16.10;101087.00;;;;9862685;29;20284;-79
2021/08/16 14:18:23;;;;;;;9.80;5.90;;;;;15.60;101108.00;;;;9853849;29;20634;-78
2021/08/16 14:23:25;;;;;;;8.00;4.63;;;;;15.40;101115.00;;;;9858694;29;20238;-79
2021/08/16 14:28:27;;;;;;;10.57;4.17;;;;;15.50;101120.00;;;;9887573;29;20238;-79
2021/08/16 14:33:31;;;;;;;8.43;4.73;;;;;15.60;101127.00;;;;9911553;29;20235;-79
2021/08/16 14:38:33;;;;;;;12.70;5.40;;;;;15.70;101152.00;;;;9876968;29;20323;-78
2021/08/16 14:43:35;;;;;;;10.13;5.20;;;;;15.70;101165.00;;;;9891145;29;20220;-77
2021/08/16 14:48:38;;;;;;;12.70;6.17;;;;;15.90;101161.00;;;;9884795;29;20206;-79
2021/08/16 14:53:41;;;;;;;12.43;6.80;;;;;15.80;101181.00;;;;9889094;29;20306;-80
2021/08/16 14:58:43;;;;;;;9.40;6.30;;;;;15.40;101190.00;;;;9885679;29;20242;-80
2021/08/16 15:03:46;;;;;;;14.33;7.23;;;;;15.00;101186.00;;;;9888228;29;20212;-81
2021/08/16 15:08:49;;;;;;;13.10;7.70;;;;;14.70;101202.00;;;;9867627;29;20211;-82
2021/08/16 15:13:51;;;;;;;13.03;7.13;;;;;14.40;101221.00;;;;9914656;29;20857;-83
2021/08/16 15:18:54;;;;;;;10.30;5.53;;;;;14.30;101224.00;;;;9902077;29;20208;-84
2021/08/16 15:23:55;;;;;;;12.43;5.67;;;;;14.10;101229.00;;;;9920895;29;20211;-84
2021/08/16 15:28:58;;;;;;;10.23;4.53;;;;;13.90;101233.00;;;;9905776;29;20668;-84
2021/08/16 15:33:59;;;;;;;6.07;3.67;;;;;13.70;101243.00;;;;9889982;29;20287;-84
2021/08/16 15:39:02;;;;;;;5.80;3.10;;;;;13.70;101239.00;;;;9901828;29;20234;-83
2021/08/16 15:44:05;;;;;;;6.93;3.27;;;;;13.70;101243.00;;;;9887448;29;20208;-83
2021/08/16 15:49:07;;;;;;;6.90;3.80;;;;;13.80;101245.00;;;;9922730;29;20212;-85
2021/08/16 15:54:10;;;;;;;11.40;4.10;;;;;13.90;101242.00;;;;9902660;29;20219;-83
2021/08/16 15:59:12;;;;;;;7.57;3.97;;;;;14.10;101242.00;;;;9898500;29;20246;-83
2021/08/16 16:04:13;;;;;;;9.47;4.47;;;;;14.20;101235.00;;;;9915082;29;20231;-83
2021/08/16 16:09:16;;;;;;;7.87;4.30;;;;;14.30;101244.00;;;;9901393;29;20249;-81
2021/08/16 16:14:17;;;;;;;9.57;4.40;;;;;14.40;101230.00;;;;9901204;29;20644;-82
2021/08/16 16:19:19;;;;;;;8.17;4.97;;;;;14.40;101226.00;;;;9899649;29;20239;-81
2021/08/16 16:24:22;;;;;;;11.63;5.93;;;;;14.70;101223.00;;;;9880236;30;20218;-80
2021/08/16 16:29:24;;;;;;;10.13;5.83;;;;;14.90;101227.00;;;;9890900;29;20215;-83
2021/08/16 16:34:26;;;;;;;22.83;6.90;;;;;15.40;101219.00;;;;9926522;29;20211;-82
2021/08/16 16:39:29;;;;;;;12.77;6.83;;;;;16.20;101233.00;;;;9899874;29;20300;-81
2021/08/16 16:44:31;;;;;;;10.30;6.27;;;;;16.10;101231.00;;;;9899668;29;20208;-82
2021/08/16 16:49:34;;;;;;;12.17;7.17;;;;;15.60;101248.00;;;;9884264;29;20720;-81
2021/08/16 16:54:35;;;;;;;12.73;6.60;;;;;15.60;101240.00;;;;9866704;30;20243;-82
2021/08/16 16:59:37;;;;;;;10.67;6.57;;;;;15.50;101236.00;;;;9873408;29;20277;-81
2021/08/16 17:04:40;;;;;;;14.33;7.93;;;;;15.50;101236.00;;;;9913324;29;20223;-81
2021/08/16 17:09:42;;;;;;;14.73;8.70;;;;;15.40;101249.00;;;;9882805;29;20333;-81
2021/08/16 17:14:44;;;;;;;14.60;8.20;;;;;15.40;101252.00;;;;9913359;29;20216;-81
2021/08/16 17:19:45;;;;;;;16.30;8.60;;;;;15.50;101263.00;;;;9913288;29;20223;-81
2021/08/16 17:24:47;;;;;;;20.07;9.40;;;;;15.60;101270.00;;;;9897665;29;20216;-82
2021/08/16 17:29:50;;;;;;;20.40;9.43;;;;;15.50;101266.00;;;;9897791;29;20215;-81
2021/08/16 17:34:51;;;;;;;19.13;9.33;;;;;15.20;101272.00;;;;9900099;29;20922;-81
2021/08/16 17:39:53;;;;;;;19.87;9.83;;;;;15.20;101292.00;;;;9899066;29;20707;-80
2021/08/16 17:44:55;;;;;;;18.80;10.23;;;;;15.10;101290.00;;;;9897259;29;20231;-80
2021/08/16 17:49:57;;;;;;;18.83;10.17;;;;;14.80;101290.00;;;;9879767;29;20224;-80
2021/08/16 17:54:59;;;;;;;20.23;10.67;;;;;14.50;101293.00;;;;9897952;29;20211;-81
2021/08/16 18:00:04;;;;;;;22.80;9.87;;;;;14.30;101298.00;;;;9883476;29;20226;-83
2021/08/16 18:05:07;;;;;;;21.83;9.73;;;;;14.10;101289.00;;;;9899861;29;20847;-83
2021/08/16 18:10:09;;;;;;;20.97;10.37;;;;;14.10;101300.00;;;;9900401;29;20251;-83
2021/08/16 18:15:11;;;;;;;20.23;11.30;;;;;14.20;101295.00;;;;9900338;29;20215;-82
2021/08/16 18:20:14;;;;;;;21.07;10.27;;;;;14.20;101297.00;;;;9884710;29;20207;-82
2021/08/16 18:25:16;;;;;;;21.33;10.33;;;;;14.10;101308.00;;;;9870657;29;20223;-83
2021/08/16 18:30:18;;;;;;;17.40;7.63;;;;;14.00;101308.00;;;;9914091;29;20219;-84
2021/08/16 18:35:21;;;;;;;22.17;8.60;;;;;13.90;101314.00;;;;9899832;29;20234;-84
2021/08/16 18:40:23;;;;;;;18.37;8.33;;;;;13.80;101315.00;;;;9905686;29;20204;-82
2021/08/16 18:45:25;;;;;;;16.73;8.83;;;;;13.90;101334.00;;;;9905269;29;20260;-83
2021/08/16 18:50:29;;;;;;;16.33;8.37;;;;;13.80;101348.00;;;;9904951;29;20259;-83
2021/08/16 18:55:31;;;;;;;22.87;10.27;;;;;13.80;101355.00;;;;9890280;29;20240;-83
2021/08/16 19:00:33;;;;;;;21.07;10.30;;;;;13.70;101357.00;;;;9867631;29;20231;-83
2021/08/16 19:05:36;;;;;;;25.27;11.23;;;;;13.60;101366.00;;;;9866749;29;20199;-82
2021/08/16 19:10:38;;;;;;;23.53;12.50;;;;;13.70;101381.00;;;;9894711;29;20319;-82
2021/08/16 19:15:40;;;;;;;27.53;13.17;;;;;13.70;101382.00;;;;9886902;29;20231;-82
2021/08/16 19:20:42;;;;;;;24.30;12.00;;;;;13.50;101389.00;;;;9903542;29;20235;-82
2021/08/16 19:25:44;;;;;;;27.17;13.77;;;;;13.40;101387.00;;;;9921024;29;20218;-81
2021/08/16 19:30:46;;;;;;;29.73;15.10;;;;;13.30;101398.00;;;;9909841;29;20306;-82
2021/08/16 19:35:48;;;;;;;36.43;15.93;;;;;13.20;101405.00;;;;9901714;29;20627;-81
2021/08/16 19:40:50;;;;;;;37.27;18.30;;;;;13.20;101412.00;;;;9865012;30;20308;-81
2021/08/16 19:45:53;;;;;;;44.20;18.47;;;;;13.10;101409.00;;;;9864004;30;20243;-80
2021/08/16 19:50:55;;;;;;;36.17;18.00;;;;;13.00;101418.00;;;;9866243;30;20240;-80
2021/08/16 19:55:57;;;;;;;38.53;18.43;;;;;13.00;101421.00;;;;9885135;29;20216;-81
2021/08/16 20:00:59;;;;;;;41.90;18.30;;;;;13.00;101429.00;;;;9878678;29;20614;-81
2021/08/16 20:06:02;;;;;;;45.13;19.73;;;;;12.90;101418.00;;;;9900421;29;20265;-81
2021/08/16 20:11:04;;;;;;;43.57;19.97;;;;;12.90;101420.00;;;;9885680;29;20227;-81
2021/08/16 20:16:06;;;;;;;47.73;21.77;;;;;13.00;101417.00;;;;9899656;29;20239;-80
2021/08/16 20:21:10;;;;;;;54.03;20.57;;;;;13.00;101424.00;;;;9855749;29;20265;-80
2021/08/16 20:26:14;;;;;;;56.77;22.33;;;;;13.00;101436.00;;;;9864581;30;20307;-81
2021/08/16 20:31:16;;;;;;;50.17;21.27;;;;;13.00;101442.00;;;;9871881;29;20292;-81
2021/08/16 20:36:18;;;;;;;53.73;21.93;;;;;13.00;101434.00;;;;9882720;29;20276;-81
2021/08/16 20:41:21;;;;;;;51.33;21.40;;;;;13.00;101439.00;;;;9883681;29;20212;-81
2021/08/16 20:46:23;;;;;;;58.73;23.37;;;;;13.00;101442.00;;;;9883456;29;20214;-81
2021/08/16 20:51:25;;;;;;;54.47;22.33;;;;;13.00;101449.00;;;;9884310;29;20684;-80
2021/08/16 20:56:27;;;;;;;62.13;22.87;;;;;12.90;101436.00;;;;9865980;30;20283;-81
